WAT5288 KBAB-KLUF
Flight info
| Callsign | WAT5288 |
|---|---|
| Flight time | 1h 41m |
| Altitude | 39000 |
| Route | PYNUN DCT RBL J1 AVE J6 PMD J65 DECAS J212 BXK |
| Aircraft | GLEX/M-VGDW/C |
Departure
| Time | 2026-05-08 05:33 |
|---|---|
| Airport | Beale Air Force Base (KBAB) |
Arrival
| Time | 2026-05-08 07:15 |
|---|---|
| Airport | Luke Air Force Base (KLUF) |
| Time | Latitude | Longitude | Altitude | Speed | Heading |
|---|---|---|---|---|---|
| 2026-05-08 05:25 | 39.14201 | -121.43186 | 117 ft | 0 kts | 164° |
| 2026-05-08 05:28 | 39.14193 | -121.43183 | 114 ft | 8 kts | 164° |
| 2026-05-08 05:29 | 39.14095 | -121.43231 | 116 ft | 21 kts | 212° |
| 2026-05-08 05:29 | 39.13933 | -121.43262 | 117 ft | 27 kts | 161° |
| 2026-05-08 05:29 | 39.13756 | -121.43182 | 114 ft | 27 kts | 160° |
| 2026-05-08 05:29 | 39.13584 | -121.43105 | 116 ft | 26 kts | 162° |
| 2026-05-08 05:30 | 39.13415 | -121.43036 | 113 ft | 25 kts | 162° |
| 2026-05-08 05:30 | 39.13251 | -121.42965 | 115 ft | 25 kts | 161° |
| 2026-05-08 05:30 | 39.13091 | -121.42894 | 115 ft | 24 kts | 161° |
| 2026-05-08 05:30 | 39.12935 | -121.42825 | 112 ft | 24 kts | 162° |
| 2026-05-08 05:31 | 39.12780 | -121.42759 | 112 ft | 23 kts | 162° |
| 2026-05-08 05:31 | 39.12620 | -121.42694 | 113 ft | 24 kts | 161° |
| 2026-05-08 05:31 | 39.12450 | -121.42619 | 113 ft | 27 kts | 161° |
| 2026-05-08 05:31 | 39.12245 | -121.42549 | 113 ft | 34 kts | 175° |
| 2026-05-08 05:32 | 39.12140 | -121.42680 | 112 ft | 25 kts | 251° |
| 2026-05-08 05:32 | 39.12089 | -121.42901 | 112 ft | 28 kts | 272° |
| 2026-05-08 05:32 | 39.12158 | -121.43032 | 113 ft | 10 kts | 341° |
| 2026-05-08 05:32 | 39.12257 | -121.43076 | 111 ft | 37 kts | 341° |
| 2026-05-08 05:33 | 39.12804 | -121.43315 | 114 ft | 128 kts | 341° |
| 2026-05-08 05:33 | 39.13844 | -121.43783 | 242 ft | 177 kts | 341° |
| 2026-05-08 05:33 | 39.14986 | -121.44327 | 656 ft | 153 kts | 339° |
| 2026-05-08 05:33 | 39.15846 | -121.44766 | 1196 ft | 142 kts | 338° |
| 2026-05-08 05:34 | 39.16966 | -121.45374 | 1366 ft | 175 kts | 335° |
| 2026-05-08 05:34 | 39.18076 | -121.45987 | 1843 ft | 193 kts | 340° |
| 2026-05-08 05:34 | 39.18918 | -121.46360 | 1949 ft | 190 kts | 341° |
| 2026-05-08 05:34 | 39.20126 | -121.46886 | 2389 ft | 177 kts | 341° |
| 2026-05-08 05:35 | 39.21312 | -121.47319 | 2812 ft | 180 kts | 356° |
| 2026-05-08 05:35 | 39.22528 | -121.47276 | 3305 ft | 173 kts | 2° |
| 2026-05-08 05:35 | 39.23837 | -121.47260 | 3839 ft | 211 kts | 360° |
| 2026-05-08 05:35 | 39.25478 | -121.47280 | 4578 ft | 259 kts | 359° |
| 2026-05-08 05:36 | 39.27304 | -121.47297 | 5413 ft | 258 kts | 359° |
| 2026-05-08 05:36 | 39.29121 | -121.47557 | 6136 ft | 269 kts | 342° |
| 2026-05-08 05:36 | 39.30657 | -121.48842 | 6813 ft | 267 kts | 312° |
| 2026-05-08 05:36 | 39.31505 | -121.50994 | 7512 ft | 275 kts | 284° |
| 2026-05-08 05:37 | 39.31626 | -121.53443 | 8235 ft | 277 kts | 262° |
| 2026-05-08 05:37 | 39.30918 | -121.55767 | 8958 ft | 283 kts | 235° |
| 2026-05-08 05:37 | 39.29482 | -121.57422 | 9679 ft | 283 kts | 210° |
| 2026-05-08 05:37 | 39.27649 | -121.58429 | 10427 ft | 293 kts | 201° |
| 2026-05-08 05:38 | 39.25613 | -121.59357 | 11172 ft | 329 kts | 200° |
| 2026-05-08 05:38 | 39.23379 | -121.60348 | 11944 ft | 338 kts | 200° |
| 2026-05-08 05:38 | 39.21147 | -121.61313 | 12694 ft | 344 kts | 199° |
| 2026-05-08 05:38 | 39.18849 | -121.62286 | 13462 ft | 348 kts | 199° |
| 2026-05-08 05:39 | 39.16545 | -121.63251 | 14187 ft | 351 kts | 199° |
| 2026-05-08 05:39 | 39.14195 | -121.64228 | 14889 ft | 357 kts | 199° |
| 2026-05-08 05:39 | 39.11826 | -121.65209 | 15602 ft | 358 kts | 199° |
| 2026-05-08 05:39 | 39.09429 | -121.66204 | 16326 ft | 370 kts | 199° |
| 2026-05-08 05:40 | 39.06892 | -121.67262 | 17092 ft | 386 kts | 199° |
| 2026-05-08 05:40 | 39.04376 | -121.68309 | 17859 ft | 377 kts | 199° |
| 2026-05-08 05:40 | 39.01854 | -121.69360 | 18594 ft | 389 kts | 199° |
| 2026-05-08 05:40 | 38.99192 | -121.70474 | 19297 ft | 416 kts | 199° |
| 2026-05-08 05:41 | 38.96420 | -121.71636 | 19974 ft | 417 kts | 199° |
| 2026-05-08 05:41 | 38.93639 | -121.72801 | 20441 ft | 431 kts | 199° |
| 2026-05-08 05:41 | 38.90755 | -121.74012 | 20938 ft | 445 kts | 199° |
| 2026-05-08 05:41 | 38.87806 | -121.75248 | 21436 ft | 454 kts | 199° |
| 2026-05-08 05:42 | 38.84700 | -121.76553 | 21963 ft | 481 kts | 199° |
| 2026-05-08 05:42 | 38.81543 | -121.77879 | 22496 ft | 473 kts | 199° |
| 2026-05-08 05:42 | 38.78413 | -121.79189 | 23009 ft | 473 kts | 199° |
| 2026-05-08 05:42 | 38.75274 | -121.80500 | 23543 ft | 475 kts | 199° |
| 2026-05-08 05:43 | 38.72105 | -121.81826 | 24008 ft | 485 kts | 199° |
| 2026-05-08 05:43 | 38.68889 | -121.83169 | 24469 ft | 485 kts | 199° |
| 2026-05-08 05:43 | 38.65679 | -121.84506 | 24927 ft | 488 kts | 199° |
| 2026-05-08 05:43 | 38.62407 | -121.85869 | 25403 ft | 496 kts | 199° |
| 2026-05-08 05:44 | 38.59147 | -121.87225 | 25875 ft | 490 kts | 199° |
| 2026-05-08 05:44 | 38.55903 | -121.88572 | 26357 ft | 489 kts | 199° |
| 2026-05-08 05:44 | 38.52705 | -121.89899 | 26838 ft | 489 kts | 199° |
| 2026-05-08 05:44 | 38.49465 | -121.91238 | 27334 ft | 489 kts | 199° |
| 2026-05-08 05:45 | 38.47147 | -121.92195 | 27695 ft | 489 kts | 199° |
| 2026-05-08 05:45 | 38.45686 | -121.92797 | 27923 ft | 488 kts | 199° |
| 2026-05-08 05:45 | 38.42456 | -121.94125 | 28438 ft | 487 kts | 199° |
| 2026-05-08 05:45 | 38.39211 | -121.95455 | 28962 ft | 494 kts | 199° |
| 2026-05-08 05:46 | 38.35923 | -121.96799 | 29501 ft | 495 kts | 199° |
| 2026-05-08 05:46 | 38.32681 | -121.98123 | 30050 ft | 484 kts | 199° |
| 2026-05-08 05:46 | 38.29477 | -121.99434 | 30514 ft | 482 kts | 199° |
| 2026-05-08 05:46 | 38.26273 | -122.00743 | 30983 ft | 485 kts | 199° |
| 2026-05-08 05:47 | 38.23064 | -122.02053 | 31466 ft | 483 kts | 199° |
| 2026-05-08 05:47 | 38.19909 | -122.03341 | 31953 ft | 481 kts | 199° |
| 2026-05-08 05:47 | 38.16724 | -122.04637 | 32447 ft | 481 kts | 199° |
| 2026-05-08 05:47 | 38.13527 | -122.05936 | 33009 ft | 482 kts | 199° |
| 2026-05-08 05:48 | 38.10336 | -122.07231 | 33536 ft | 481 kts | 199° |
| 2026-05-08 05:48 | 38.07153 | -122.08518 | 34066 ft | 479 kts | 199° |
| 2026-05-08 05:48 | 38.03983 | -122.09799 | 34534 ft | 478 kts | 199° |
| 2026-05-08 05:48 | 38.00814 | -122.11078 | 35001 ft | 478 kts | 199° |
| 2026-05-08 05:49 | 37.97649 | -122.12354 | 35480 ft | 478 kts | 199° |
| 2026-05-08 05:49 | 37.94478 | -122.13631 | 35968 ft | 478 kts | 199° |
| 2026-05-08 05:49 | 37.91300 | -122.14907 | 36464 ft | 478 kts | 199° |
| 2026-05-08 05:49 | 37.88125 | -122.16182 | 36967 ft | 478 kts | 199° |
| 2026-05-08 05:50 | 37.84948 | -122.17454 | 37531 ft | 477 kts | 199° |
| 2026-05-08 05:50 | 37.81778 | -122.18718 | 38067 ft | 477 kts | 199° |
| 2026-05-08 05:50 | 37.78615 | -122.19973 | 38614 ft | 477 kts | 199° |
| 2026-05-08 05:50 | 37.75415 | -122.21131 | 39103 ft | 479 kts | 194° |
| 2026-05-08 05:51 | 37.72081 | -122.21748 | 39148 ft | 490 kts | 185° |
| 2026-05-08 05:51 | 37.65307 | -122.20987 | 39158 ft | 495 kts | 167° |
| 2026-05-08 05:52 | 37.58975 | -122.17635 | 39149 ft | 495 kts | 148° |
| 2026-05-08 05:52 | 37.53528 | -122.12336 | 39153 ft | 495 kts | 139° |
| 2026-05-08 05:53 | 37.48432 | -122.06511 | 39153 ft | 494 kts | 137° |
| 2026-05-08 05:53 | 37.43427 | -122.00588 | 39154 ft | 493 kts | 137° |
| 2026-05-08 05:54 | 37.38462 | -121.94658 | 39154 ft | 491 kts | 137° |
| 2026-05-08 05:54 | 37.33525 | -121.88733 | 39151 ft | 490 kts | 137° |
| 2026-05-08 05:55 | 37.28608 | -121.82809 | 39151 ft | 489 kts | 137° |
| 2026-05-08 05:55 | 37.23665 | -121.76927 | 39149 ft | 489 kts | 137° |
| 2026-05-08 05:56 | 37.18727 | -121.71137 | 39144 ft | 488 kts | 137° |
| 2026-05-08 05:56 | 37.13764 | -121.65327 | 39132 ft | 487 kts | 137° |
| 2026-05-08 05:57 | 37.08809 | -121.59527 | 39135 ft | 487 kts | 137° |
| 2026-05-08 05:57 | 37.03872 | -121.53743 | 39138 ft | 486 kts | 137° |
| 2026-05-08 05:58 | 36.98963 | -121.47990 | 39136 ft | 486 kts | 137° |
| 2026-05-08 05:58 | 36.94033 | -121.42209 | 39140 ft | 485 kts | 137° |
| 2026-05-08 05:59 | 36.89109 | -121.36438 | 39138 ft | 485 kts | 137° |
| 2026-05-08 05:59 | 36.84180 | -121.30661 | 39137 ft | 485 kts | 137° |
| 2026-05-08 06:00 | 36.79260 | -121.24898 | 39136 ft | 485 kts | 137° |
| 2026-05-08 06:00 | 36.74298 | -121.19188 | 39136 ft | 485 kts | 138° |
| 2026-05-08 06:01 | 36.69310 | -121.13527 | 39124 ft | 484 kts | 139° |
| 2026-05-08 06:01 | 36.64326 | -121.07890 | 39117 ft | 484 kts | 138° |
| 2026-05-08 06:02 | 36.59369 | -121.02288 | 39109 ft | 484 kts | 138° |
| 2026-05-08 06:02 | 36.54377 | -120.96653 | 39112 ft | 485 kts | 138° |
| 2026-05-08 06:03 | 36.49377 | -120.91013 | 39105 ft | 484 kts | 138° |
| 2026-05-08 06:03 | 36.44392 | -120.85393 | 39098 ft | 484 kts | 138° |
| 2026-05-08 06:04 | 36.39410 | -120.79777 | 39091 ft | 484 kts | 138° |
| 2026-05-08 06:04 | 36.34416 | -120.74154 | 39092 ft | 484 kts | 138° |
| 2026-05-08 06:05 | 36.29451 | -120.68573 | 39085 ft | 485 kts | 138° |
| 2026-05-08 06:05 | 36.24454 | -120.62960 | 39078 ft | 485 kts | 138° |
| 2026-05-08 06:06 | 36.19451 | -120.57344 | 39084 ft | 485 kts | 138° |
| 2026-05-08 06:06 | 36.14451 | -120.51736 | 39082 ft | 485 kts | 138° |
| 2026-05-08 06:07 | 36.09446 | -120.46130 | 39073 ft | 484 kts | 138° |
| 2026-05-08 06:07 | 36.04453 | -120.40543 | 39078 ft | 484 kts | 138° |
| 2026-05-08 06:08 | 35.99413 | -120.35004 | 39068 ft | 485 kts | 139° |
| 2026-05-08 06:08 | 35.94340 | -120.29509 | 39062 ft | 485 kts | 139° |
| 2026-05-08 06:09 | 35.89258 | -120.24025 | 39058 ft | 485 kts | 139° |
| 2026-05-08 06:09 | 35.84183 | -120.18555 | 39053 ft | 484 kts | 139° |
| 2026-05-08 06:10 | 35.79139 | -120.13123 | 39052 ft | 485 kts | 139° |
| 2026-05-08 06:10 | 35.74062 | -120.07658 | 39049 ft | 485 kts | 139° |
| 2026-05-08 06:11 | 35.68970 | -120.02210 | 39045 ft | 485 kts | 140° |
| 2026-05-08 06:11 | 35.63941 | -119.96670 | 39043 ft | 485 kts | 132° |
| 2026-05-08 06:12 | 35.60158 | -119.89824 | 39045 ft | 485 kts | 118° |
| 2026-05-08 06:12 | 35.57152 | -119.82389 | 39053 ft | 485 kts | 115° |
| 2026-05-08 06:13 | 35.54154 | -119.74957 | 39046 ft | 485 kts | 117° |
| 2026-05-08 06:13 | 35.50974 | -119.67630 | 39045 ft | 486 kts | 118° |
| 2026-05-08 06:14 | 35.47673 | -119.60327 | 39038 ft | 498 kts | 119° |
| 2026-05-08 06:14 | 35.44225 | -119.52934 | 39030 ft | 498 kts | 120° |
| 2026-05-08 06:15 | 35.40750 | -119.45596 | 39028 ft | 497 kts | 120° |
| 2026-05-08 06:15 | 35.37321 | -119.38239 | 39033 ft | 497 kts | 119° |
| 2026-05-08 06:16 | 35.33927 | -119.30850 | 39039 ft | 497 kts | 119° |
| 2026-05-08 06:16 | 35.30569 | -119.23513 | 39041 ft | 497 kts | 119° |
| 2026-05-08 06:17 | 35.25426 | -119.12498 | 39050 ft | 497 kts | 120° |
| 2026-05-08 06:17 | 35.21959 | -119.05189 | 39040 ft | 497 kts | 120° |
| 2026-05-08 06:18 | 35.18488 | -118.97878 | 39046 ft | 497 kts | 120° |
| 2026-05-08 06:18 | 35.15056 | -118.90548 | 39057 ft | 496 kts | 119° |
| 2026-05-08 06:19 | 35.11648 | -118.83205 | 39085 ft | 496 kts | 120° |
| 2026-05-08 06:19 | 35.08195 | -118.75901 | 39116 ft | 497 kts | 120° |
| 2026-05-08 06:20 | 35.04744 | -118.68639 | 39142 ft | 498 kts | 120° |
| 2026-05-08 06:20 | 35.01178 | -118.61377 | 39158 ft | 500 kts | 122° |
| 2026-05-08 06:21 | 34.97012 | -118.54568 | 39157 ft | 501 kts | 129° |
| 2026-05-08 06:21 | 34.92444 | -118.48138 | 39138 ft | 501 kts | 131° |
| 2026-05-08 06:22 | 34.88597 | -118.42872 | 39059 ft | 500 kts | 131° |
| 2026-05-08 06:22 | 34.84020 | -118.36498 | 39064 ft | 499 kts | 130° |
| 2026-05-08 06:23 | 34.79534 | -118.30060 | 39073 ft | 498 kts | 130° |
| 2026-05-08 06:23 | 34.75082 | -118.23611 | 39075 ft | 497 kts | 129° |
| 2026-05-08 06:24 | 34.70631 | -118.17154 | 39074 ft | 498 kts | 129° |
| 2026-05-08 06:24 | 34.66181 | -118.10703 | 39092 ft | 499 kts | 129° |
| 2026-05-08 06:25 | 34.61952 | -118.04033 | 39078 ft | 499 kts | 120° |
| 2026-05-08 06:25 | 34.59237 | -117.96317 | 39078 ft | 497 kts | 107° |
| 2026-05-08 06:26 | 34.57287 | -117.88276 | 39064 ft | 496 kts | 105° |
| 2026-05-08 06:26 | 34.55303 | -117.80249 | 39044 ft | 497 kts | 107° |
| 2026-05-08 06:27 | 34.53111 | -117.72358 | 39037 ft | 496 kts | 108° |
| 2026-05-08 06:27 | 34.50754 | -117.64483 | 39061 ft | 496 kts | 109° |
| 2026-05-08 06:28 | 34.48360 | -117.56649 | 39078 ft | 495 kts | 109° |
| 2026-05-08 06:28 | 34.45954 | -117.48831 | 39088 ft | 495 kts | 109° |
| 2026-05-08 06:29 | 34.43543 | -117.41017 | 39088 ft | 495 kts | 109° |
| 2026-05-08 06:29 | 34.41128 | -117.33206 | 39080 ft | 495 kts | 109° |
| 2026-05-08 06:30 | 34.38770 | -117.25365 | 39061 ft | 495 kts | 108° |
| 2026-05-08 06:30 | 34.36441 | -117.17508 | 39036 ft | 495 kts | 108° |
| 2026-05-08 06:31 | 34.34072 | -117.09674 | 39037 ft | 494 kts | 109° |
| 2026-05-08 06:31 | 34.31655 | -117.01891 | 39024 ft | 494 kts | 109° |
| 2026-05-08 06:32 | 34.29235 | -116.94162 | 39010 ft | 495 kts | 109° |
| 2026-05-08 06:32 | 34.26788 | -116.86369 | 38978 ft | 495 kts | 109° |
| 2026-05-08 06:33 | 34.24392 | -116.78574 | 38965 ft | 494 kts | 108° |
| 2026-05-08 06:33 | 34.22038 | -116.70763 | 38952 ft | 494 kts | 108° |
| 2026-05-08 06:34 | 34.19648 | -116.62961 | 38938 ft | 495 kts | 109° |
| 2026-05-08 06:34 | 34.17223 | -116.55245 | 38927 ft | 494 kts | 109° |
| 2026-05-08 06:35 | 34.14769 | -116.47488 | 38950 ft | 494 kts | 109° |
| 2026-05-08 06:35 | 34.12309 | -116.39745 | 38971 ft | 494 kts | 109° |
| 2026-05-08 06:36 | 34.09843 | -116.31991 | 38982 ft | 495 kts | 109° |
| 2026-05-08 06:36 | 34.07407 | -116.24231 | 38987 ft | 494 kts | 108° |
| 2026-05-08 06:37 | 34.05025 | -116.16455 | 38980 ft | 493 kts | 108° |
| 2026-05-08 06:37 | 34.02590 | -116.08727 | 38966 ft | 493 kts | 109° |
| 2026-05-08 06:38 | 34.00153 | -116.01067 | 38946 ft | 493 kts | 109° |
| 2026-05-08 06:38 | 33.97694 | -115.93351 | 38918 ft | 493 kts | 109° |
| 2026-05-08 06:39 | 33.95237 | -115.85652 | 38919 ft | 491 kts | 109° |
| 2026-05-08 06:39 | 33.92788 | -115.77986 | 38913 ft | 490 kts | 109° |
| 2026-05-08 06:40 | 33.90340 | -115.70329 | 38908 ft | 489 kts | 109° |
| 2026-05-08 06:40 | 33.87894 | -115.62694 | 38899 ft | 489 kts | 109° |
| 2026-05-08 06:41 | 33.85448 | -115.55063 | 38894 ft | 488 kts | 109° |
| 2026-05-08 06:41 | 33.82989 | -115.47444 | 38899 ft | 488 kts | 109° |
| 2026-05-08 06:42 | 33.81381 | -115.39646 | 38877 ft | 481 kts | 94° |
| 2026-05-08 06:42 | 33.81024 | -115.31632 | 38884 ft | 478 kts | 89° |
| 2026-05-08 06:43 | 33.80931 | -115.23633 | 38876 ft | 479 kts | 89° |
| 2026-05-08 06:43 | 33.80738 | -115.15615 | 38870 ft | 481 kts | 90° |
| 2026-05-08 06:44 | 33.80388 | -115.07557 | 38871 ft | 482 kts | 91° |
| 2026-05-08 06:44 | 33.79946 | -114.99504 | 38876 ft | 483 kts | 91° |
| 2026-05-08 06:45 | 33.79483 | -114.91440 | 38873 ft | 483 kts | 91° |
| 2026-05-08 06:45 | 33.79016 | -114.83368 | 38873 ft | 484 kts | 91° |
| 2026-05-08 06:46 | 33.78551 | -114.75341 | 38874 ft | 484 kts | 91° |
| 2026-05-08 06:46 | 33.78084 | -114.67265 | 38876 ft | 484 kts | 91° |
| 2026-05-08 06:47 | 33.77615 | -114.59185 | 38873 ft | 485 kts | 91° |
| 2026-05-08 06:47 | 33.77018 | -114.51101 | 38874 ft | 487 kts | 96° |
| 2026-05-08 06:48 | 33.75678 | -114.43095 | 38873 ft | 489 kts | 101° |
| 2026-05-08 06:48 | 33.74048 | -114.35210 | 38860 ft | 489 kts | 101° |
| 2026-05-08 06:49 | 33.72448 | -114.27251 | 38610 ft | 495 kts | 101° |
| 2026-05-08 06:49 | 33.71664 | -114.23207 | 38064 ft | 497 kts | 100° |
| 2026-05-08 06:49 | 33.70911 | -114.19171 | 37526 ft | 493 kts | 99° |
| 2026-05-08 06:50 | 33.70178 | -114.15182 | 37000 ft | 484 kts | 99° |
| 2026-05-08 06:50 | 33.69459 | -114.11269 | 36370 ft | 477 kts | 99° |
| 2026-05-08 06:50 | 33.68745 | -114.07398 | 35722 ft | 473 kts | 99° |
| 2026-05-08 06:50 | 33.68042 | -114.03561 | 35162 ft | 468 kts | 98° |
| 2026-05-08 06:51 | 33.67363 | -113.99757 | 34617 ft | 464 kts | 98° |
| 2026-05-08 06:51 | 33.66690 | -113.95983 | 34096 ft | 462 kts | 98° |
| 2026-05-08 06:51 | 33.66013 | -113.92217 | 33539 ft | 462 kts | 98° |
| 2026-05-08 06:51 | 33.65332 | -113.88444 | 32959 ft | 463 kts | 98° |
| 2026-05-08 06:52 | 33.64646 | -113.84660 | 32386 ft | 465 kts | 98° |
| 2026-05-08 06:52 | 33.63958 | -113.80852 | 31837 ft | 466 kts | 98° |
| 2026-05-08 06:52 | 33.63268 | -113.77037 | 31303 ft | 466 kts | 98° |
| 2026-05-08 06:52 | 33.62591 | -113.73278 | 30767 ft | 468 kts | 98° |
| 2026-05-08 06:53 | 33.61898 | -113.69458 | 30246 ft | 469 kts | 98° |
| 2026-05-08 06:53 | 33.61177 | -113.65635 | 29649 ft | 470 kts | 99° |
| 2026-05-08 06:53 | 33.60447 | -113.61803 | 29024 ft | 471 kts | 99° |
| 2026-05-08 06:53 | 33.59713 | -113.57964 | 28424 ft | 473 kts | 99° |
| 2026-05-08 06:54 | 33.58980 | -113.54112 | 27832 ft | 474 kts | 99° |
| 2026-05-08 06:54 | 33.58250 | -113.50246 | 27247 ft | 475 kts | 99° |
| 2026-05-08 06:54 | 33.57524 | -113.46375 | 26673 ft | 477 kts | 99° |
| 2026-05-08 06:54 | 33.56800 | -113.42495 | 26095 ft | 478 kts | 99° |
| 2026-05-08 06:55 | 33.56079 | -113.38594 | 25528 ft | 479 kts | 99° |
| 2026-05-08 06:55 | 33.55360 | -113.34681 | 24975 ft | 480 kts | 99° |
| 2026-05-08 06:55 | 33.54631 | -113.30767 | 24432 ft | 482 kts | 99° |
| 2026-05-08 06:55 | 33.53880 | -113.26845 | 23893 ft | 483 kts | 100° |
| 2026-05-08 06:56 | 33.53126 | -113.22918 | 23340 ft | 484 kts | 100° |
| 2026-05-08 06:56 | 33.52379 | -113.19014 | 22718 ft | 486 kts | 100° |
| 2026-05-08 06:56 | 33.51626 | -113.15059 | 22110 ft | 488 kts | 100° |
| 2026-05-08 06:56 | 33.50875 | -113.11092 | 21520 ft | 489 kts | 100° |
| 2026-05-08 06:57 | 33.50132 | -113.07112 | 20955 ft | 491 kts | 100° |
| 2026-05-08 06:57 | 33.49372 | -113.03110 | 20394 ft | 493 kts | 101° |
| 2026-05-08 06:57 | 33.48591 | -112.99107 | 19854 ft | 495 kts | 101° |
| 2026-05-08 06:57 | 33.47806 | -112.95089 | 19325 ft | 496 kts | 101° |
| 2026-05-08 06:58 | 33.47027 | -112.91053 | 18794 ft | 498 kts | 100° |
| 2026-05-08 06:58 | 33.46652 | -112.86961 | 18236 ft | 493 kts | 87° |
| 2026-05-08 06:58 | 33.47245 | -112.82956 | 17907 ft | 487 kts | 69° |
| 2026-05-08 06:58 | 33.48792 | -112.79367 | 17909 ft | 484 kts | 53° |
| 2026-05-08 06:59 | 33.51009 | -112.76549 | 17911 ft | 447 kts | 38° |
| 2026-05-08 06:59 | 33.53595 | -112.74765 | 17898 ft | 415 kts | 21° |
| 2026-05-08 06:59 | 33.56269 | -112.73801 | 17645 ft | 393 kts | 14° |
| 2026-05-08 06:59 | 33.58914 | -112.73087 | 17000 ft | 384 kts | 12° |
| 2026-05-08 07:00 | 33.61385 | -112.72387 | 16336 ft | 344 kts | 14° |
| 2026-05-08 07:00 | 33.63596 | -112.71648 | 15721 ft | 325 kts | 17° |
| 2026-05-08 07:00 | 33.65747 | -112.70820 | 15136 ft | 324 kts | 19° |
| 2026-05-08 07:00 | 33.67842 | -112.69931 | 14570 ft | 323 kts | 20° |
| 2026-05-08 07:01 | 33.69947 | -112.68970 | 14007 ft | 322 kts | 21° |
| 2026-05-08 07:01 | 33.72022 | -112.67977 | 13423 ft | 321 kts | 22° |
| 2026-05-08 07:01 | 33.74079 | -112.66952 | 12810 ft | 319 kts | 22° |
| 2026-05-08 07:01 | 33.76122 | -112.65915 | 12208 ft | 318 kts | 23° |
| 2026-05-08 07:02 | 33.78139 | -112.64881 | 11868 ft | 308 kts | 23° |
| 2026-05-08 07:02 | 33.80049 | -112.63897 | 11864 ft | 289 kts | 23° |
| 2026-05-08 07:02 | 33.81837 | -112.62972 | 11855 ft | 270 kts | 23° |
| 2026-05-08 07:02 | 33.83493 | -112.62090 | 11853 ft | 251 kts | 24° |
| 2026-05-08 07:03 | 33.85004 | -112.61201 | 11850 ft | 234 kts | 31° |
| 2026-05-08 07:03 | 33.86103 | -112.59870 | 11830 ft | 219 kts | 60° |
| 2026-05-08 07:03 | 33.86444 | -112.58095 | 11496 ft | 227 kts | 89° |
| 2026-05-08 07:03 | 33.85963 | -112.56257 | 10993 ft | 239 kts | 121° |
| 2026-05-08 07:04 | 33.84698 | -112.54932 | 10517 ft | 249 kts | 153° |
| 2026-05-08 07:04 | 33.82994 | -112.54542 | 10055 ft | 255 kts | 184° |
| 2026-05-08 07:04 | 33.81293 | -112.55053 | 9619 ft | 257 kts | 196° |
| 2026-05-08 07:04 | 33.79507 | -112.55166 | 9083 ft | 262 kts | 169° |
| 2026-05-08 07:05 | 33.77776 | -112.54445 | 8614 ft | 264 kts | 156° |
| 2026-05-08 07:05 | 33.76090 | -112.53545 | 8149 ft | 267 kts | 156° |
| 2026-05-08 07:05 | 33.74405 | -112.52561 | 7657 ft | 271 kts | 147° |
| 2026-05-08 07:05 | 33.73110 | -112.50928 | 7154 ft | 273 kts | 121° |
| 2026-05-08 07:06 | 33.72512 | -112.48783 | 6670 ft | 273 kts | 94° |
| 2026-05-08 07:06 | 33.72607 | -112.46521 | 6273 ft | 269 kts | 79° |
| 2026-05-08 07:06 | 33.72977 | -112.44339 | 5896 ft | 266 kts | 74° |
| 2026-05-08 07:06 | 33.73402 | -112.42208 | 5518 ft | 266 kts | 74° |
| 2026-05-08 07:07 | 33.73758 | -112.40037 | 5129 ft | 265 kts | 82° |
| 2026-05-08 07:07 | 33.73827 | -112.37821 | 4740 ft | 265 kts | 91° |
| 2026-05-08 07:07 | 33.73689 | -112.35624 | 4386 ft | 262 kts | 96° |
| 2026-05-08 07:07 | 33.73424 | -112.33532 | 4370 ft | 244 kts | 101° |
| 2026-05-08 07:08 | 33.73054 | -112.31610 | 4389 ft | 228 kts | 105° |
| 2026-05-08 07:08 | 33.72582 | -112.29863 | 4423 ft | 209 kts | 110° |
| 2026-05-08 07:08 | 33.72063 | -112.28307 | 4412 ft | 192 kts | 115° |
| 2026-05-08 07:08 | 33.71505 | -112.26922 | 4404 ft | 176 kts | 117° |
| 2026-05-08 07:09 | 33.71153 | -112.26055 | 4398 ft | 172 kts | 117° |
| 2026-05-08 07:09 | 33.70637 | -112.24773 | 4368 ft | 173 kts | 117° |
| 2026-05-08 07:09 | 33.70099 | -112.23453 | 4229 ft | 170 kts | 117° |
| 2026-05-08 07:09 | 33.69521 | -112.22246 | 4187 ft | 164 kts | 134° |
| 2026-05-08 07:10 | 33.68560 | -112.21717 | 4184 ft | 146 kts | 186° |
| 2026-05-08 07:10 | 33.67687 | -112.22278 | 4254 ft | 144 kts | 230° |
| 2026-05-08 07:10 | 33.66958 | -112.23090 | 4254 ft | 148 kts | 223° |
| 2026-05-08 07:10 | 33.66149 | -112.23911 | 4066 ft | 154 kts | 226° |
| 2026-05-08 07:11 | 33.65378 | -112.24792 | 3859 ft | 153 kts | 228° |
| 2026-05-08 07:11 | 33.64594 | -112.25654 | 3656 ft | 153 kts | 226° |
| 2026-05-08 07:11 | 33.63830 | -112.26524 | 3420 ft | 150 kts | 227° |
| 2026-05-08 07:11 | 33.63072 | -112.27359 | 3236 ft | 149 kts | 226° |
| 2026-05-08 07:12 | 33.62318 | -112.28206 | 3053 ft | 148 kts | 228° |
| 2026-05-08 07:12 | 33.61566 | -112.29061 | 2862 ft | 150 kts | 226° |
| 2026-05-08 07:12 | 33.60802 | -112.29897 | 2734 ft | 148 kts | 224° |
| 2026-05-08 07:12 | 33.60053 | -112.30754 | 2533 ft | 149 kts | 223° |
| 2026-05-08 07:13 | 33.59287 | -112.31590 | 2341 ft | 149 kts | 223° |
| 2026-05-08 07:13 | 33.58543 | -112.32445 | 2144 ft | 148 kts | 224° |
| 2026-05-08 07:13 | 33.57783 | -112.33272 | 1948 ft | 147 kts | 223° |
| 2026-05-08 07:13 | 33.57046 | -112.34115 | 1752 ft | 146 kts | 224° |
| 2026-05-08 07:14 | 33.56312 | -112.34953 | 1575 ft | 144 kts | 224° |
| 2026-05-08 07:14 | 33.55588 | -112.35763 | 1422 ft | 144 kts | 223° |
| 2026-05-08 07:14 | 33.54879 | -112.36584 | 1231 ft | 139 kts | 224° |
| 2026-05-08 07:14 | 33.54189 | -112.37340 | 1109 ft | 128 kts | 221° |
| 2026-05-08 07:15 | 33.53558 | -112.38015 | 1084 ft | 109 kts | 221° |
| 2026-05-08 07:15 | 33.53093 | -112.38530 | 1076 ft | 55 kts | 223° |
| 2026-05-08 07:15 | 33.52929 | -112.38703 | 1080 ft | 20 kts | 191° |
| 2026-05-08 07:15 | 33.52824 | -112.38612 | 1081 ft | 20 kts | 129° |
| 2026-05-08 07:16 | 33.52831 | -112.38481 | 1081 ft | 13 kts | 59° |
| 2026-05-08 07:16 | 33.52901 | -112.38398 | 1079 ft | 15 kts | 42° |
| 2026-05-08 07:16 | 33.52983 | -112.38310 | 1080 ft | 16 kts | 42° |
| 2026-05-08 07:16 | 33.53067 | -112.38217 | 1080 ft | 18 kts | 43° |
| 2026-05-08 07:17 | 33.53162 | -112.38117 | 1081 ft | 18 kts | 41° |
| 2026-05-08 07:17 | 33.53248 | -112.38019 | 1084 ft | 17 kts | 43° |
| 2026-05-08 07:17 | 33.53291 | -112.37924 | 1084 ft | 7 kts | 123° |
| 2026-05-08 07:17 | 33.53245 | -112.37898 | 1084 ft | 8 kts | 159° |
| 2026-05-08 07:18 | 33.53211 | -112.37897 | 1084 ft | 0 kts | 197° |
| 2026-05-08 07:18 | 33.53210 | -112.37897 | 1084 ft | 0 kts | 197° |